M I D A S
Marine Information and Data Acquisition System
Tripno 917 of the Zeeleeuw from 2005-06-15 06:13:24 to 2005-06-15 14:31:44
Back to CruiseResearch ActivitiesStationsMapUnderway DataData graphs

EquipmentUnitsComment
TimeDGPSUTC
LatitudeDGPSDM.mWGS84
LongitudeDGPSDM.mWGS84
TemperatureSBE03/SBE38deg celciusITS90
ConductivitySBE21S/mITS90
SalinitySBE21 Practical Salinity Units
ChlorophylAChelsea fluorimeterg/lCalibrated in Aceton
Missing or incorrect values are displayed as -999
Sea surface data collected by the RV Zeeleeuw from 2005-06-15 06:12:57 to 2005-06-15 14:43:59
Time Latitude Longitude Temperature Conductivity Salinity ChlorophylA
2005-06-15 06:14:02 51°13.602 2°56.085 21.8587 5.196507 34.594228 -0.680121
2005-06-15 06:15:02 51°13.604 2°56.07 21.9189 5.196084 34.594144 -0.646411
2005-06-15 06:16:02 51°13.574 2°56.121 16.4804 4.420847 31.567383 3.600973
2005-06-15 06:17:01 51°13.547 2°56.193 16.2021 3.547761 27.070343 7.511264
2005-06-15 06:18:01 51°13.555 2°56.239 16.335 3.411131 26.078793 7.983195
2005-06-15 06:19:02 51°13.549 2°56.227 16.2273 3.123001 23.576807 7.814648
2005-06-15 06:20:02 51°13.541 2°56.229 16.183 3.372475 25.768121 8.118033
2005-06-15 06:21:02 51°13.533 2°56.237 16.1968 3.430409 26.308572 8.556255
2005-06-15 06:22:01 51°13.556 2°56.16 16.1902 3.341405 25.547649 8.252871
2005-06-15 06:23:01 51°13.6 2°56.009 16.2053 3.299909 25.183989 8.320289
2005-06-15 06:24:02 51°13.671 2°55.86 16.1066 3.317602 25.347869 8.151742
2005-06-15 06:25:02 51°13.755 2°55.718 16.0457 3.380376 25.929351 8.85964
2005-06-15 06:26:02 51°13.877 2°55.605 16.0016 3.505942 27.045677 10.106888
2005-06-15 06:27:02 51°14.026 2°55.514 15.8712 3.511421 27.145566 11.556392
2005-06-15 06:28:02 51°14.158 2°55.397 15.8014 3.613408 28.09404 12.399127
2005-06-15 06:29:02 51°14.272 2°55.235 15.8004 3.665462 28.586362 12.264289
2005-06-15 06:30:02 51°14.394 2°55.024 15.6945 3.648602 28.453253 11.185589
2005-06-15 06:31:02 51°14.582 2°54.851 15.571 3.707087 29.042968 10.275435
2005-06-15 06:32:02 51°14.778 2°54.67 15.5441 3.881931 30.646755 8.151742
2005-06-15 06:33:02 51°14.973 2°54.485 15.4264 3.926097 31.085728 5.859503
2005-06-15 06:34:02 51°15.163 2°54.288 15.4064 3.909865 31.001979 4.072905
2005-06-15 06:35:02 51°15.359 2°54.094 15.3866 3.90196 30.949239 4.005486
2005-06-15 06:36:02 51°15.563 2°53.916 15.3507 3.910288 31.039888 3.19646
2005-06-15 06:37:02 51°15.771 2°53.755 15.3371 3.946443 31.38415 2.926785
2005-06-15 06:38:02 51°15.978 2°53.599 15.3379 3.977119 31.674747 2.421144
2005-06-15 06:39:02 51°16.185 2°53.443 15.3259 3.976381 31.688724 2.151469
2005-06-15 06:40:02 51°16.392 2°53.29 15.3129 3.986184 31.759454 2.218888
2005-06-15 06:41:02 51°16.596 2°53.127 15.2956 3.980387 31.7243 2.320016
2005-06-15 06:42:02 51°16.799 2°52.962 15.2697 3.980703 31.741027 2.185178
2005-06-15 06:43:02 51°17 2°52.791 15.2015 3.989137 31.849394 2.320016
2005-06-15 06:44:02 51°17.205 2°52.626 15.1882 3.993354 31.923504 2.08405
2005-06-15 06:45:02 51°17.431 2°52.535 15.1921 4.0098 32.079904 2.252597
2005-06-15 06:46:02 51°17.665 2°52.52 15.1828 4.019815 32.168014 2.320016
2005-06-15 06:47:02 51°17.902 2°52.522 15.1629 4.016336 32.151741 2.488563
2005-06-15 06:48:02 51°18.128 2°52.634 15.1352 4.014122 32.144906 2.724529
2005-06-15 06:49:02 51°18.32 2°52.854 15.1098 4.007376 32.100662 2.859366
2005-06-15 06:50:02 51°18.487 2°53.126 15.0789 3.985766 31.93101 2.522272
2005-06-15 06:51:02 51°18.631 2°53.428 15.0637 3.973538 31.847503 2.387435
2005-06-15 06:52:02 51°18.728 2°53.773 15.0605 3.973433 31.857569 2.320016
2005-06-15 06:53:03 51°18.815 2°54.128 15.0616 3.96774 31.809767 2.185178
2005-06-15 06:54:02 51°18.896 2°54.479 15.0812 3.969427 31.822391 2.286306
2005-06-15 06:55:02 51°18.979 2°54.833 15.0976 3.962259 31.743734 2.522272
2005-06-15 06:56:01 51°19.064 2°55.18 15.1065 3.965948 31.763872 2.387435
2005-06-15 06:57:02 51°19.153 2°55.54 15.1281 3.961204 31.715457 2.421144
2005-06-15 06:58:02 51°19.243 2°55.899 15.2024 3.951084 31.591275 2.522272
2005-06-15 06:59:02 51°19.334 2°56.253 15.2207 3.940331 31.454562 2.488563
2005-06-15 07:00:02 51°19.423 2°56.605 15.2741 3.934955 31.385161 2.488563
2005-06-15 07:01:02 51°19.512 2°56.961 15.2797 3.92863 31.296099 2.555982
2005-06-15 07:02:02 51°19.601 2°57.314 15.3113 3.925889 31.262837 2.65711
2005-06-15 07:03:02 51°19.691 2°57.665 15.3246 3.924413 31.226522 2.690819
2005-06-15 07:04:02 51°19.781 2°58.016 15.3581 3.922937 31.198582 2.758238
2005-06-15 07:05:02 51°19.868 2°58.369 15.3614 3.924834 31.196967 2.994204
2005-06-15 07:06:02 51°19.94 2°58.731 15.3698 3.924729 31.193065 3.061623
2005-06-15 07:07:02 51°20.013 2°59.092 15.3834 3.925256 31.190013 3.263879
2005-06-15 07:08:02 51°20.09 2°59.454 15.411 3.92631 31.189253 3.567264
2005-06-15 07:09:02 51°20.165 2°59.817 15.419 3.926099 31.165458 3.668392
2005-06-15 07:10:01 51°20.239 3°0.168 15.4079 3.919247 31.102535 4.072905
2005-06-15 07:11:02 51°20.315 3°0.535 15.4259 3.910393 31.03256 4.140324
2005-06-15 07:12:02 51°20.388 3°0.891 15.4629 3.900379 30.922941 4.409999
2005-06-15 07:13:02 51°20.459 3°1.244 15.4773 3.893422 30.838125 4.949349
2005-06-15 07:14:02 51°20.532 3°1.595 15.4957 3.883935 30.744584 5.724665
2005-06-15 07:15:02 51°20.602 3°1.946 15.4804 3.879192 30.689993 6.5674
2005-06-15 07:16:02 51°20.674 3°2.3 15.46 3.872341 30.641872 6.60111
2005-06-15 07:17:02 51°20.758 3°2.654 15.4545 3.86022 30.549636 7.005623
2005-06-15 07:18:03 51°20.842 3°3.01 15.4519 3.856215 30.517842 7.241589
2005-06-15 07:19:02 51°20.927 3°3.356 15.449 3.856637 30.522133 7.376426
2005-06-15 07:20:02 51°21.012 3°3.711 15.4477 3.853053 30.496364 7.241589
2005-06-15 07:21:02 51°21.08 3°3.918 15.475 3.851578 30.482213 7.005623
2005-06-15 07:22:01 51°21.129 3°3.977 15.4738 3.85084 30.457798 6.668529
2005-06-15 07:23:02 51°21.191 3°4.039 15.4631 3.854318 30.488409 6.398853
2005-06-15 07:24:02 51°21.255 3°4.133 15.4651 3.853475 30.491397 6.466272
2005-06-15 07:25:01 51°21.305 3°4.249 15.4587 3.85495 30.501496 6.331435
2005-06-15 07:26:01 51°21.339 3°4.378 15.4615 3.85495 30.506704 6.162888
2005-06-15 07:27:01 51°21.362 3°4.504 15.4545 3.855688 30.509728 6.095469
2005-06-15 07:28:02 51°21.379 3°4.606 15.4637 3.853686 30.496146 6.365144
2005-06-15 07:29:02 51°21.393 3°4.693 15.4676 3.853159 30.483408 6.499982
2005-06-15 07:30:02 51°21.408 3°4.776 15.4758 3.855688 30.502205 6.297725
2005-06-15 07:31:02 51°21.422 3°4.854 15.4743 3.856531 30.505577 6.499982
2005-06-15 07:32:02 51°21.436 3°4.932 15.4735 3.855899 30.500011 6.735947
2005-06-15 07:33:01 51°21.448 3°5.01 15.4749 3.85611 30.501867 6.769657
2005-06-15 07:34:02 51°21.46 3°5.093 15.4707 3.855372 30.495951 6.837076
2005-06-15 07:35:02 51°21.471 3°5.173 15.4601 3.854634 30.489458 6.837076
2005-06-15 07:36:02 51°21.482 3°5.251 15.4547 3.855056 30.500109 6.971913
2005-06-15 07:37:01 51°21.493 3°5.329 15.4557 3.854845 30.497097 7.14046
2005-06-15 07:38:02 51°21.504 3°5.409 15.4611 3.853369 30.487577 7.376426
2005-06-15 07:39:03 51°21.516 3°5.487 15.4699 3.85358 30.48712 7.376426
2005-06-15 07:40:02 51°21.531 3°5.563 15.4595 3.854002 30.485626 7.005623
2005-06-15 07:41:02 51°21.548 3°5.639 15.4633 3.852526 30.47842 7.106751
2005-06-15 07:42:02 51°21.565 3°5.716 15.4597 3.852632 30.478191 7.106751
2005-06-15 07:43:02 51°21.582 3°5.794 15.4657 3.852842 30.480047 7.005623
2005-06-15 07:44:02 51°21.598 3°5.873 15.4606 3.850629 30.457099 7.106751
2005-06-15 07:45:01 51°21.616 3°5.95 15.4625 3.852526 30.477264 7.106751
2005-06-15 07:46:02 51°21.636 3°6.03 15.4561 3.851578 30.467758 7.14046
2005-06-15 07:47:02 51°21.655 3°6.109 15.4571 3.851894 30.472853 7.17417
2005-06-15 07:48:02 51°21.675 3°6.189 15.4632 3.851788 30.474238 7.14046
2005-06-15 07:49:02 51°21.694 3°6.266 15.4636 3.852315 30.475408 7.275298
2005-06-15 07:50:02 51°21.713 3°6.342 15.4893 3.852948 30.47346 7.073042
2005-06-15 07:51:02 51°21.733 3°6.418 15.4892 3.854318 30.471074 6.971913
2005-06-15 07:52:02 51°21.752 3°6.491 15.4971 3.854423 30.469691 6.938204
2005-06-15 07:53:02 51°21.771 3°6.562 15.495 3.855161 30.472716 6.938204
2005-06-15 07:54:02 51°21.789 3°6.633 15.5042 3.855161 30.471561 6.904494
2005-06-15 07:55:02 51°21.807 3°6.704 15.5049 3.855477 30.469724 6.870785
2005-06-15 07:56:02 51°21.824 3°6.788 15.4952 3.855371 30.469374 6.735947
2005-06-15 07:57:02 51°21.838 3°6.882 15.49 3.854634 30.469813 6.870785
2005-06-15 07:58:02 51°21.848 3°6.979 15.4966 3.854423 30.467382 7.039332
2005-06-15 07:59:02 51°21.859 3°7.08 15.4922 3.854317 30.464146 7.14046
2005-06-15 08:00:01 51°21.882 3°7.253 15.469 3.853791 30.467016 7.17417
2005-06-15 08:01:02 51°21.934 3°7.415 15.4696 3.857901 30.513009 7.511264
2005-06-15 08:02:02 51°21.989 3°7.487 15.4658 3.862223 30.553941 7.646101
2005-06-15 08:03:02 51°22.037 3°7.529 15.5036 3.855477 30.496301 7.477554
2005-06-15 08:04:02 51°22.078 3°7.561 15.4951 3.855688 30.473887 7.309007
2005-06-15 08:05:02 51°22.14 3°7.68 15.4629 3.854528 30.467732 7.376426
2005-06-15 08:06:02 51°22.072 3°7.843 15.4792 3.854529 30.496627 7.039332
2005-06-15 08:07:02 51°21.906 3°7.914 15.4164 3.858956 30.536181 7.275298
2005-06-15 08:08:02 51°21.72 3°7.915 15.4472 3.85084 30.495973 9.028187
2005-06-15 08:09:02 51°21.532 3°7.902 15.4832 3.846835 30.442184 9.601247
2005-06-15 08:10:02 51°21.425 3°7.91 15.4841 3.844832 30.392832 9.668665
2005-06-15 08:11:02 51°21.367 3°7.86 15.4941 3.842935 30.377875 9.533828
2005-06-15 08:12:02 51°21.32 3°7.798 15.4903 3.843988 30.375053 9.230443
2005-06-15 08:13:02 51°21.278 3°7.724 15.4753 3.843145 30.37282 9.061896
2005-06-15 08:14:02 51°21.242 3°7.642 15.4684 3.842197 30.376569 9.230443
2005-06-15 08:15:02 51°21.212 3°7.559 15.4668 3.841881 30.376092 9.297862
2005-06-15 08:16:02 51°21.193 3°7.478 15.4676 3.841143 30.373634 9.297862
2005-06-15 08:17:02 51°21.178 3°7.398 15.488 3.841881 30.376668 9.163024
2005-06-15 08:18:02 51°21.165 3°7.317 15.5082 3.844305 30.384742 9.028187
2005-06-15 08:19:02 51°21.152 3°7.238 15.5273 3.84852 30.40453 8.623674
2005-06-15 08:20:02 51°21.138 3°7.16 15.525 3.851155 30.412717 8.353999
2005-06-15 08:21:02 51°21.124 3°7.081 15.5122 3.851261 30.416521 8.320289
2005-06-15 08:22:02 51°21.108 3°7.002 15.4946 3.84715 30.393063 8.657383
2005-06-15 08:23:02 51°21.093 3°6.924 15.4825 3.846096 30.391282 9.129315
2005-06-15 08:24:02 51°21.081 3°6.849 15.5007 3.846834 30.411021 9.196734
2005-06-15 08:25:02 51°21.069 3°6.774 15.4986 3.851682 30.434631 9.095606
2005-06-15 08:26:02 51°21.058 3°6.701 15.5338 3.847888 30.415102 8.82593
2005-06-15 08:27:02 51°21.046 3°6.629 15.4964 3.852841 30.427534 8.994477
2005-06-15 08:28:02 51°21.033 3°6.556 15.454 3.84715 30.408038 9.331571
2005-06-15 08:29:02 51°21.023 3°6.484 15.4974 3.845675 30.418699 9.601247
2005-06-15 08:30:02 51°21.013 3°6.412 15.5226 3.852947 30.452673 9.533828
2005-06-15 08:31:02 51°21.002 3°6.342 15.5444 3.860219 30.48718 9.230443
2005-06-15 08:32:02 51°20.99 3°6.273 15.5338 3.863908 30.514404 9.095606
2005-06-15 08:33:02 51°20.98 3°6.202 15.5916 3.866332 30.535131 9.163024
2005-06-15 08:34:02 51°20.971 3°6.132 15.6142 3.874869 30.571421 8.758512
2005-06-15 08:35:02 51°20.963 3°6.064 15.5992 3.877188 30.577916 8.320289
2005-06-15 08:36:02 51°20.951 3°5.998 15.5381 3.873605 30.560893 8.320289
2005-06-15 08:37:02 51°20.941 3°5.928 15.6041 3.868229 30.541403 9.264153
2005-06-15 08:38:02 51°20.932 3°5.859 15.5714 3.875185 30.566689 8.960768
2005-06-15 08:39:02 51°20.918 3°5.781 15.5346 3.869494 30.55136 8.960768
2005-06-15 08:40:03 51°20.911 3°5.684 15.4907 3.864752 30.53048 9.567537
2005-06-15 08:41:03 51°20.925 3°5.583 15.487 3.862433 30.541318 9.702375
2005-06-15 08:42:02 51°20.962 3°5.492 15.4934 3.863909 30.553145 9.4327
2005-06-15 08:43:02 51°21.023 3°5.428 15.5139 3.866228 30.564861 9.601247
2005-06-15 08:44:02 51°21.087 3°5.397 15.5417 3.869706 30.583296 9.533828
2005-06-15 08:45:02 51°21.14 3°5.398 15.5101 3.875186 30.61006 9.97205
2005-06-15 08:46:02 51°21.182 3°5.409 15.5328 3.866649 30.557571 10.410272
2005-06-15 08:47:02 51°21.216 3°5.424 15.5385 3.865595 30.524604 10.814785
2005-06-15 08:48:03 51°21.25 3°5.446 15.4591 3.863065 30.514501 10.915913
2005-06-15 08:49:02 51°21.289 3°5.475 15.4994 3.857585 30.518906 11.455264
2005-06-15 08:50:02 51°21.324 3°5.504 15.5141 3.86043 30.503466 11.320426
2005-06-15 08:51:02 51°21.356 3°5.525 15.5275 3.858111 30.476731 11.11817
2005-06-15 08:52:02 51°21.386 3°5.536 15.4843 3.854001 30.452711 11.286717
2005-06-15 08:53:02 51°21.416 3°5.538 15.4843 3.850418 30.433312 10.679947
2005-06-15 08:54:02 51°21.444 3°5.531 15.5157 3.849785 30.425445 10.275435
2005-06-15 08:55:02 51°21.468 3°5.515 15.5518 3.852104 30.420476 10.174306
2005-06-15 08:56:02 51°21.49 3°5.492 15.5708 3.854949 30.421298 10.073178
2005-06-15 08:57:02 51°21.509 3°5.464 15.5662 3.85653 30.425398 10.275435
2005-06-15 08:58:02 51°21.523 3°5.432 15.5263 3.854949 30.423599 10.241725
2005-06-15 08:59:02 51°21.535 3°5.399 15.5229 3.853685 30.426304 10.275435
2005-06-15 09:00:02 51°21.545 3°5.365 15.5374 3.852631 30.42741 10.342853
2005-06-15 09:01:02 51°21.552 3°5.332 15.5203 3.853685 30.430335 10.342853
2005-06-15 09:02:02 51°21.558 3°5.299 15.5141 3.852104 30.424507 10.174306
2005-06-15 09:03:02 51°21.563 3°5.272 15.507 3.852315 30.429816 9.870922
2005-06-15 09:04:02 51°21.568 3°5.248 15.52 3.851893 30.43072 10.005759
2005-06-15 09:05:02 51°21.584 3°5.178 15.5287 3.852736 30.428912 10.275435
2005-06-15 09:06:03 51°21.679 3°5.192 15.5605 3.854211 30.429207 10.477691
2005-06-15 09:07:02 51°21.753 3°5.438 15.5316 3.856425 30.441739 9.601247
2005-06-15 09:08:02 51°21.787 3°5.767 15.5462 3.855582 30.451039 9.837212
2005-06-15 09:09:02 51°21.834 3°6.106 15.5498 3.85653 30.438634 9.601247
2005-06-15 09:10:03 51°21.878 3°6.456 15.5404 3.856425 30.440587 10.073178
2005-06-15 09:11:02 51°21.922 3°6.797 15.5433 3.855582 30.437788 10.174306
2005-06-15 09:12:02 51°21.961 3°7.143 15.5513 3.855582 30.43203 10.915913
2005-06-15 09:13:02 51°21.999 3°7.484 15.5514 3.85516 30.430054 10.848494
2005-06-15 09:14:02 51°22.039 3°7.83 15.5026 3.857373 30.442584 10.747366
2005-06-15 09:15:02 51°22.078 3°8.172 15.5352 3.854634 30.470391 10.747366
2005-06-15 09:16:02 51°22.116 3°8.514 15.5451 3.855371 30.446305 10.848494
2005-06-15 09:17:02 51°22.155 3°8.852 15.5263 3.852842 30.431567 10.781076
2005-06-15 09:18:02 51°22.196 3°9.197 15.5665 3.851049 30.400282 10.578819
2005-06-15 09:19:02 51°22.234 3°9.534 15.5331 3.858006 30.444107 10.5114
2005-06-15 09:20:02 51°22.272 3°9.872 15.4514 3.859903 30.492481 10.477691
2005-06-15 09:21:02 51°22.313 3°10.204 15.4814 3.86001 30.554156 9.97205
2005-06-15 09:22:02 51°22.357 3°10.526 15.4187 3.843356 30.386767 9.264153
2005-06-15 09:23:02 51°22.394 3°10.856 15.4477 3.839668 30.381973 9.028187
2005-06-15 09:24:02 51°22.426 3°11.193 15.4095 3.852737 30.491844 8.691093
2005-06-15 09:25:02 51°22.465 3°11.527 15.4377 3.852316 30.507817 8.85964
2005-06-15 09:26:02 51°22.503 3°11.857 15.4664 3.855161 30.510297 8.927059
2005-06-15 09:27:03 51°22.542 3°12.196 15.4799 3.855161 30.488893 8.960768
2005-06-15 09:28:02 51°22.58 3°12.527 15.4774 3.784652 29.863092 8.623674
2005-06-15 09:29:02 51°22.62 3°12.86 15.5212 3.86412 30.553262 8.85964
2005-06-15 09:30:02 51°22.658 3°13.192 15.5139 3.869811 30.571487 8.623674
2005-06-15 09:31:03 51°22.703 3°13.521 15.5255 3.877821 30.650626 8.016905
2005-06-15 09:32:02 51°22.763 3°13.836 15.5193 3.881721 30.677384 7.477554
2005-06-15 09:33:02 51°22.828 3°14.151 15.5436 3.883513 30.698957 7.039332
2005-06-15 09:34:02 51°22.894 3°14.468 15.5334 3.886886 30.712936 6.735947
2005-06-15 09:35:03 51°22.94 3°14.793 15.5514 3.888362 30.731148 6.5674
2005-06-15 09:36:02 51°22.984 3°15.112 15.5019 3.889626 30.727156 6.466272
2005-06-15 09:37:02 51°23.029 3°15.428 15.4715 3.888362 30.767255 6.162888
2005-06-15 09:38:02 51°23.072 3°15.741 15.4519 3.879298 30.711297 6.331435
2005-06-15 09:39:03 51°23.13 3°16.058 15.5131 3.87466 30.659387 6.938204
2005-06-15 09:40:02 51°23.186 3°16.366 15.5085 3.874976 30.627332 7.073042
2005-06-15 09:41:02 51°23.245 3°16.677 15.5394 3.872551 30.60427 6.971913
2005-06-15 09:42:02 51°23.301 3°16.988 15.5256 3.871181 30.579482 6.837076
2005-06-15 09:43:02 51°23.359 3°17.3 15.514 3.86686 30.550747 6.938204
2005-06-15 09:44:02 51°23.423 3°17.606 15.6042 3.863908 30.506322 6.837076
2005-06-15 09:45:02 51°23.496 3°17.912 15.5582 3.855265 30.398207 6.938204
2005-06-15 09:46:02 51°23.552 3°18.218 15.5453 3.850206 30.379656 7.039332
2005-06-15 09:47:02 51°23.593 3°18.528 15.5884 3.847677 30.357451 6.971913
2005-06-15 09:48:02 51°23.634 3°18.842 15.5734 3.845252 30.316109 7.073042
2005-06-15 09:49:03 51°23.666 3°19.124 15.5322 3.845463 30.307077 6.971913
2005-06-15 09:50:02 51°23.679 3°19.253 15.5399 3.842407 30.32783 6.837076
2005-06-15 09:51:02 51°23.7 3°19.341 15.539 3.839983 30.308839 6.904494
2005-06-15 09:52:02 51°23.71 3°19.424 15.5591 3.839983 30.297373 6.938204
2005-06-15 09:53:02 51°23.712 3°19.497 15.6039 3.838823 30.271737 7.073042
2005-06-15 09:54:02 51°23.709 3°19.566 15.5509 3.837874 30.242265 7.039332
2005-06-15 09:55:02 51°23.711 3°19.635 15.5034 3.83387 30.246012 7.005623
2005-06-15 09:56:02 51°23.714 3°19.702 15.5179 3.832289 30.260762 7.106751
2005-06-15 09:57:02 51°23.718 3°19.77 15.5134 3.833132 30.256136 7.376426
2005-06-15 09:58:02 51°23.717 3°19.836 15.5083 3.832921 30.25944 7.511264
2005-06-15 09:59:01 51°23.715 3°19.9 15.5222 3.831762 30.254415 7.814648
2005-06-15 10:00:02 51°23.712 3°19.967 15.524 3.831551 30.237104 7.511264
2005-06-15 10:01:02 51°23.713 3°20.034 15.5077 3.830392 30.227499 7.342717
2005-06-15 10:02:02 51°23.712 3°20.1 15.4762 3.828284 30.229593 7.443845
2005-06-15 10:03:02 51°23.709 3°20.167 15.4767 3.827968 30.240563 7.275298
2005-06-15 10:04:02 51°23.705 3°20.233 15.4811 3.82839 30.245414 7.342717
2005-06-15 10:05:02 51°23.702 3°20.301 15.5148 3.829338 30.250884 7.410136
2005-06-15 10:06:02 51°23.7 3°20.368 15.5425 3.830286 30.234585 7.511264
2005-06-15 10:07:02 51°23.697 3°20.435 15.5555 3.830497 30.219274 7.410136
2005-06-15 10:08:02 51°23.695 3°20.503 15.5351 3.830708 30.209694 7.443845
2005-06-15 10:09:02 51°23.695 3°20.571 15.5335 3.826914 30.1924 7.410136
2005-06-15 10:10:02 51°23.694 3°20.638 15.5517 3.827967 30.195364 7.511264
2005-06-15 10:11:02 51°23.693 3°20.705 15.5726 3.830708 30.207409 7.410136
2005-06-15 10:12:02 51°23.688 3°20.771 15.5665 3.830918 30.202405 7.511264
2005-06-15 10:13:02 51°23.683 3°20.836 15.5807 3.830813 30.201481 7.443845
2005-06-15 10:14:02 51°23.676 3°20.902 15.6158 3.831129 30.191698 7.410136
2005-06-15 10:15:02 51°23.669 3°20.967 15.6241 3.833342 30.186008 7.612392
2005-06-15 10:16:02 51°23.663 3°21.032 15.6095 3.833974 30.188128 7.275298
2005-06-15 10:17:02 51°23.658 3°21.097 15.6628 3.833342 30.180881 7.410136
2005-06-15 10:18:02 51°23.651 3°21.161 15.6595 3.836398 30.1769 7.544973
2005-06-15 10:19:02 51°23.644 3°21.226 15.663 3.835344 30.165972 7.005623
2005-06-15 10:20:02 51°23.637 3°21.291 15.6328 3.835344 30.164835 7.073042
2005-06-15 10:21:02 51°23.633 3°21.355 15.6672 3.830602 30.169409 6.837076
2005-06-15 10:22:02 51°23.631 3°21.42 15.6636 3.828071 30.097819 6.634819
2005-06-15 10:23:02 51°23.629 3°21.485 15.6281 3.82628 30.087821 6.634819
2005-06-15 10:24:02 51°23.622 3°21.55 15.6216 3.82354 30.09676 6.297725
2005-06-15 10:25:02 51°23.606 3°21.611 15.6147 3.823118 30.09023 6.432563
2005-06-15 10:26:02 51°23.582 3°21.665 15.5953 3.821537 30.083771 6.297725
2005-06-15 10:27:02 51°23.556 3°21.697 15.5953 3.81943 30.078943 6.196597
2005-06-15 10:28:02 51°23.535 3°21.702 15.6499 3.817533 30.057786 6.129178
2005-06-15 10:29:02 51°23.512 3°21.704 15.6479 3.819535 30.044124 5.893212
2005-06-15 10:30:02 51°23.448 3°21.636 15.6502 3.819324 30.037748 6.365144
2005-06-15 10:31:03 51°23.422 3°21.468 15.6571 3.818481 30.033205 6.162888
2005-06-15 10:32:02 51°23.422 3°21.324 15.6423 3.819429 30.033573 6.061759
2005-06-15 10:33:02 51°23.425 3°21.195 15.6147 3.819429 30.047735 6.297725
2005-06-15 10:34:02 51°23.429 3°21.081 15.5857 3.819219 30.068579 6.297725
2005-06-15 10:35:02 51°23.433 3°20.975 15.5926 3.819957 30.08981 6.196597
2005-06-15 10:36:02 51°23.439 3°20.872 15.6159 3.820062 30.08505 6.432563
2005-06-15 10:37:02 51°23.446 3°20.772 15.6301 3.821221 30.074191 6.398853
2005-06-15 10:38:03 51°23.456 3°20.673 15.6458 3.821959 30.076108 6.230306
2005-06-15 10:39:03 51°23.467 3°20.576 15.6652 3.823013 30.069449 6.331435
2005-06-15 10:40:01 51°23.478 3°20.482 15.6843 3.826069 30.080308 6.230306
2005-06-15 10:41:02 51°23.492 3°20.383 15.6683 3.825858 30.071665 6.432563
2005-06-15 10:42:02 51°23.507 3°20.287 15.682 3.828493 30.100371 6.331435
2005-06-15 10:43:02 51°23.523 3°20.191 15.6937 3.829336 30.099237 6.432563
2005-06-15 10:44:02 51°23.54 3°20.094 15.698 3.828282 30.083223 6.297725
2005-06-15 10:45:02 51°23.554 3°19.997 15.7134 3.833341 30.128579 6.432563
2005-06-15 10:46:02 51°23.568 3°19.9 15.7006 3.833867 30.111072 6.432563
2005-06-15 10:47:02 51°23.582 3°19.803 15.6654 3.837662 30.164656 6.702238
2005-06-15 10:48:02 51°23.594 3°19.706 15.6496 3.832182 30.136039 6.870785
2005-06-15 10:49:03 51°23.607 3°19.609 15.656 3.836609 30.185572 6.837076
2005-06-15 10:50:03 51°23.619 3°19.514 15.6733 3.836925 30.180942 6.837076
2005-06-15 10:51:02 51°23.634 3°19.421 15.657 3.838189 30.181769 6.971913
2005-06-15 10:52:02 51°23.648 3°19.329 15.6874 3.837768 30.189458 7.275298
2005-06-15 10:53:02 51°23.661 3°19.237 15.6717 3.83977 30.19503 7.309007
2005-06-15 10:54:02 51°23.672 3°19.146 15.6668 3.839559 30.193755 7.544973
2005-06-15 10:55:02 51°23.68 3°19.055 15.6541 3.838506 30.189654 7.544973
2005-06-15 10:56:02 51°23.687 3°18.965 15.6449 3.837979 30.196995 7.679811
2005-06-15 10:57:02 51°23.691 3°18.875 15.6353 3.838084 30.20646 7.915777
2005-06-15 10:58:02 51°23.696 3°18.784 15.6168 3.837557 30.210394 7.814648
2005-06-15 10:59:02 51°23.699 3°18.694 15.6255 3.836398 30.20708 7.74723
2005-06-15 11:00:02 51°23.703 3°18.6 15.6173 3.837452 30.210041 7.814648
2005-06-15 11:01:03 51°23.709 3°18.491 15.6435 3.837347 30.215389 7.511264
2005-06-15 11:02:03 51°23.73 3°18.36 15.6799 3.838717 30.205161 7.443845
2005-06-15 11:03:02 51°23.761 3°18.221 15.6779 3.84114 30.208723 7.309007
2005-06-15 11:04:03 51°23.805 3°18.082 15.6022 3.84251 30.217294 7.443845
2005-06-15 11:05:02 51°23.893 3°17.914 15.562 3.840298 30.259514 7.309007
2005-06-15 11:06:02 51°23.987 3°17.858 15.5304 3.835556 30.240219 7.679811
2005-06-15 11:07:02 51°24.041 3°17.851 15.5668 3.833132 30.236677 7.241589
2005-06-15 11:08:02 51°24.073 3°17.853 15.5591 3.834923 30.232958 7.376426
2005-06-15 11:09:02 51°24.097 3°17.852 15.5613 3.835767 30.246641 7.207879
2005-06-15 11:10:02 51°24.127 3°17.843 15.5729 3.836083 30.249987 7.511264
2005-06-15 11:11:02 51°24.164 3°17.812 15.5728 3.837242 30.245291 7.106751
2005-06-15 11:12:02 51°24.2 3°17.753 15.544 3.838085 30.256114 7.376426
2005-06-15 11:13:03 51°24.228 3°17.684 15.5362 3.837242 30.270458 7.578683
2005-06-15 11:14:03 51°24.252 3°17.616 15.5427 3.838507 30.289578 7.309007
2005-06-15 11:15:02 51°24.273 3°17.55 15.5406 3.83798 30.275788 7.241589
2005-06-15 11:16:02 51°24.294 3°17.483 15.5581 3.838296 30.28028 7.477554
2005-06-15 11:17:02 51°24.313 3°17.417 15.5562 3.839034 30.27702 7.443845
2005-06-15 11:18:03 51°24.331 3°17.351 15.5331 3.839772 30.281203 7.342717
2005-06-15 11:19:02 51°24.347 3°17.29 15.5114 3.841037 30.314078 7.14046
2005-06-15 11:20:02 51°24.362 3°17.232 15.5159 3.840405 30.325167 7.106751
2005-06-15 11:21:03 51°24.375 3°17.175 15.5247 3.839983 30.31515 7.073042
2005-06-15 11:22:03 51°24.389 3°17.121 15.5236 3.84051 30.316909 7.106751
2005-06-15 11:23:02 51°24.403 3°17.07 15.5436 3.841142 30.316151 6.971913
2005-06-15 11:24:01 51°24.42 3°17.002 15.5579 3.841247 30.309047 7.309007
2005-06-15 11:25:02 51°24.493 3°16.842 15.5536 3.841036 30.291727 7.241589
2005-06-15 11:26:02 51°24.616 3°16.654 15.5938 3.842828 30.309166 7.073042
2005-06-15 11:27:02 51°24.753 3°16.402 15.5959 3.846411 30.317113 7.241589
2005-06-15 11:28:02 51°24.875 3°16.14 15.6196 3.849257 30.334619 6.803366
2005-06-15 11:29:02 51°24.986 3°15.825 15.6287 3.854316 30.366938 7.005623
2005-06-15 11:30:02 51°25.066 3°15.458 15.644 3.866015 30.459744 7.106751
2005-06-15 11:31:02 51°25.127 3°15.082 15.5853 3.876133 30.539254 7.207879
2005-06-15 11:32:02 51°25.181 3°14.706 15.5691 3.883301 30.644892 7.342717
2005-06-15 11:33:03 51°25.235 3°14.322 15.4969 3.88404 30.669918 7.207879
2005-06-15 11:34:03 51°25.288 3°13.947 15.4578 3.882776 30.708165 6.870785
2005-06-15 11:35:02 51°25.343 3°13.578 15.4426 3.879825 30.711862 7.207879
2005-06-15 11:36:02 51°25.4 3°13.209 15.4206 3.877295 30.700057 7.309007
2005-06-15 11:37:02 51°25.456 3°12.843 15.3948 3.873923 30.691301 7.544973
2005-06-15 11:38:02 51°25.512 3°12.48 15.378 3.872131 30.691238 7.915777
2005-06-15 11:39:02 51°25.567 3°12.126 15.3695 3.872553 30.707793 7.376426
2005-06-15 11:40:02 51°25.619 3°11.77 15.3294 3.873396 30.725165 7.679811
2005-06-15 11:41:02 51°25.669 3°11.425 15.3029 3.870129 30.726122 7.612392
2005-06-15 11:42:03 51°25.745 3°11.093 15.2925 3.869287 30.739741 7.039332
2005-06-15 11:43:03 51°25.872 3°10.818 15.3013 3.868127 30.734175 6.634819
2005-06-15 11:44:02 51°26 3°10.542 15.3202 3.867495 30.723899 6.837076
2005-06-15 11:45:02 51°26.142 3°10.274 15.3301 3.868127 30.713106 7.780939
2005-06-15 11:46:02 51°26.287 3°10.005 15.3702 3.836507 30.426922 7.376426
2005-06-15 11:47:03 51°26.432 3°9.725 15.4069 3.874661 30.729319 7.544973
2005-06-15 11:48:02 51°26.569 3°9.466 15.3797 3.879088 30.75086 6.971913
2005-06-15 11:49:02 51°26.677 3°9.449 15.3609 3.880142 30.777119 6.837076
2005-06-15 11:50:02 51°26.751 3°9.528 15.3746 3.880669 30.794652 6.735947
2005-06-15 11:51:03 51°26.826 3°9.563 15.3857 3.881301 30.789111 6.702238
2005-06-15 11:52:02 51°26.887 3°9.599 15.3802 3.882777 30.796286 6.668529
2005-06-15 11:53:02 51°26.93 3°9.665 15.3896 3.882777 30.797457 6.702238
2005-06-15 11:54:03 51°26.973 3°9.73 15.3784 3.883199 30.795325 6.735947
2005-06-15 11:55:02 51°27.013 3°9.79 15.3668 3.882672 30.800039 6.803366
2005-06-15 11:56:02 51°27.052 3°9.847 15.353 3.88225 30.805688 7.073042
2005-06-15 11:57:02 51°27.086 3°9.909 15.3446 3.883199 30.822274 7.14046
2005-06-15 11:58:03 51°27.117 3°9.977 15.341 3.883305 30.832004 6.904494
2005-06-15 11:59:03 51°27.145 3°10.045 15.3434 3.882672 30.827002 6.769657
2005-06-15 12:00:02 51°27.172 3°10.111 15.3457 3.886361 30.855497 6.837076
2005-06-15 12:01:02 51°27.203 3°10.175 15.3417 3.887204 30.864124 6.803366
2005-06-15 12:02:03 51°27.237 3°10.239 15.3282 3.887731 30.869957 6.668529
2005-06-15 12:03:02 51°27.27 3°10.298 15.3244 3.888891 30.890199 6.702238
2005-06-15 12:04:02 51°27.304 3°10.359 15.3165 3.88984 30.902118 6.365144
2005-06-15 12:05:03 51°27.338 3°10.421 15.3126 3.890261 30.914088 6.365144
2005-06-15 12:06:02 51°27.371 3°10.48 15.3077 3.889629 30.909082 6.432563
2005-06-15 12:07:03 51°27.405 3°10.543 15.3151 3.890051 30.914578 6.735947
2005-06-15 12:08:02 51°27.436 3°10.603 15.3109 3.89258 30.932245 7.410136
2005-06-15 12:09:03 51°27.468 3°10.664 15.3197 3.892053 30.92935 8.016905
2005-06-15 12:10:02 51°27.499 3°10.727 15.3217 3.884886 30.863012 7.309007
2005-06-15 12:11:02 51°27.533 3°10.788 15.3334 3.893845 30.936953 6.870785
2005-06-15 12:12:02 51°27.566 3°10.85 15.3451 3.894372 30.933369 6.803366
2005-06-15 12:13:02 51°27.601 3°10.912 15.3463 3.895953 30.939694 6.938204
2005-06-15 12:14:03 51°27.636 3°10.974 15.3523 3.89785 30.954112 7.207879
2005-06-15 12:15:03 51°27.67 3°11.037 15.3491 3.898272 30.955484 7.241589
2005-06-15 12:16:02 51°27.702 3°11.098 15.3368 3.898377 30.95995 7.073042
2005-06-15 12:17:03 51°27.734 3°11.16 15.3273 3.897639 30.961675 7.005623
2005-06-15 12:18:02 51°27.765 3°11.231 15.3205 3.897956 30.970957 6.870785
2005-06-15 12:19:02 51°27.788 3°11.316 15.315 3.897113 30.968215 6.837076
2005-06-15 12:20:03 51°27.803 3°11.408 15.3181 3.896164 30.963361 6.803366
2005-06-15 12:21:03 51°27.809 3°11.499 15.3204 3.894794 30.950059 6.702238
2005-06-15 12:22:03 51°27.803 3°11.566 15.3249 3.893423 30.934991 6.60111
2005-06-15 12:23:03 51°27.79 3°11.612 15.3294 3.892053 30.919928 6.499982
2005-06-15 12:24:03 51°27.765 3°11.651 15.332 3.890894 30.90732 6.5674
2005-06-15 12:25:03 51°27.704 3°11.639 15.3347 3.890367 30.898542 6.466272
2005-06-15 12:26:02 51°27.648 3°11.567 15.3336 3.888048 30.876865 6.365144
2005-06-15 12:27:02 51°27.607 3°11.478 15.3353 3.886888 30.868966 6.264016
2005-06-15 12:28:02 51°27.571 3°11.384 15.3289 3.887205 30.871174 6.264016
2005-06-15 12:29:03 51°27.539 3°11.288 15.3284 3.887942 30.881224 6.162888
2005-06-15 12:30:02 51°27.506 3°11.198 15.3297 3.888364 30.887304 6.196597
2005-06-15 12:31:02 51°27.471 3°11.115 15.3308 3.889523 30.895203 6.398853
2005-06-15 12:32:02 51°27.443 3°11.045 15.3341 3.890261 30.901728 6.365144
2005-06-15 12:33:02 51°27.419 3°10.984 15.3388 3.890788 30.904034 6.499982
2005-06-15 12:34:02 51°27.395 3°10.922 15.3434 3.891526 30.907028 6.499982
2005-06-15 12:35:03 51°27.367 3°10.856 15.3494 3.892475 30.911297 6.466272
2005-06-15 12:36:03 51°27.34 3°10.789 15.3525 3.889418 30.879575 6.466272
2005-06-15 12:37:02 51°27.315 3°10.725 15.3518 3.89395 30.918459 6.331435
2005-06-15 12:38:02 51°27.288 3°10.661 15.3574 3.893739 30.916595 6.432563
2005-06-15 12:39:02 51°27.262 3°10.6 15.3476 3.892896 30.905614 6.466272
2005-06-15 12:40:03 51°27.237 3°10.537 15.3394 3.892475 30.91012 6.432563
2005-06-15 12:41:02 51°27.211 3°10.473 15.3279 3.891737 30.90948 6.398853
2005-06-15 12:42:03 51°27.183 3°10.406 15.3204 3.891526 30.915855 6.499982
2005-06-15 12:43:02 51°27.155 3°10.341 15.3147 3.891421 30.921989 6.533691
2005-06-15 12:44:02 51°27.128 3°10.275 15.3138 3.89121 30.92248 6.466272
2005-06-15 12:45:03 51°27.1 3°10.208 15.3137 3.890999 30.922382 6.499982
2005-06-15 12:46:02 51°27.074 3°10.144 15.3151 3.890999 30.92356 6.668529
2005-06-15 12:47:03 51°27.045 3°10.077 15.3124 3.890999 30.92356 6.668529
2005-06-15 12:48:03 51°27.014 3°10.012 15.313 3.890051 30.916345 6.702238
2005-06-15 12:49:01 51°26.984 3°9.946 15.3158 3.890262 30.91821 6.803366
2005-06-15 12:50:02 51°26.954 3°9.876 15.3179 3.889735 30.91237 6.803366
2005-06-15 12:51:03 51°26.923 3°9.808 15.3258 3.888575 30.898581 6.870785
2005-06-15 12:52:02 51°26.894 3°9.741 15.3327 3.888786 30.893973 6.971913
2005-06-15 12:53:02 51°26.868 3°9.679 15.3366 3.88868 30.889512 7.005623
2005-06-15 12:54:02 51°26.844 3°9.622 15.3388 3.887942 30.880636 7.14046
2005-06-15 12:55:02 51°26.82 3°9.566 15.3448 3.887626 30.874901 7.275298
2005-06-15 12:56:02 51°26.795 3°9.509 15.3431 3.88731 30.867405 7.207879
2005-06-15 12:57:03 51°26.765 3°9.439 15.3446 3.886467 30.862301 7.241589
2005-06-15 12:58:02 51°26.741 3°9.36 15.343 3.885834 30.854362 7.342717
2005-06-15 12:59:02 51°26.731 3°9.27 15.3444 3.885307 30.852053 7.376426
2005-06-15 13:00:02 51°26.732 3°9.178 15.3436 3.884886 30.846565 7.443845
2005-06-15 13:01:03 51°26.741 3°9.111 15.3486 3.884991 30.846909 7.477554
2005-06-15 13:02:02 51°26.748 3°9.067 15.3412 3.885834 30.853187 7.443845
2005-06-15 13:03:02 51°26.753 3°9.036 15.341 3.886045 30.857987 7.443845
2005-06-15 13:04:02 51°26.757 3°9.013 15.341 3.886361 30.861957 7.511264
2005-06-15 13:05:02 51°26.76 3°8.993 15.3456 3.886045 30.858574 7.477554
2005-06-15 13:06:02 51°26.763 3°8.965 15.338 3.886572 30.860296 7.511264
2005-06-15 13:07:02 51°26.763 3°8.926 15.3389 3.886677 30.86534 7.511264
2005-06-15 13:08:02 51°26.76 3°8.884 15.3356 3.887099 30.869654 7.511264
2005-06-15 13:09:02 51°26.754 3°8.843 15.3346 3.887626 30.874901 7.477554
2005-06-15 13:10:02 51°26.744 3°8.802 15.3347 3.887521 30.875145 7.612392
2005-06-15 13:11:02 51°26.732 3°8.762 15.338 3.887415 30.874213 7.578683
2005-06-15 13:12:03 51°26.718 3°8.726 15.3373 3.887099 30.869067 7.646101
2005-06-15 13:13:02 51°26.704 3°8.695 15.3385 3.88731 30.871518 7.71352
2005-06-15 13:14:03 51°26.688 3°8.67 15.338 3.887837 30.875589 7.71352
2005-06-15 13:15:02 51°26.676 3°8.652 15.3371 3.88731 30.87093 7.646101
2005-06-15 13:16:02 51°26.673 3°8.641 15.3385 3.887521 30.874557 7.578683
2005-06-15 13:17:03 51°26.674 3°8.636 15.339 3.887204 30.868823 7.71352
2005-06-15 13:18:02 51°26.674 3°8.633 15.3382 3.887521 30.872206 7.646101
2005-06-15 13:19:03 51°26.675 3°8.551 15.3347 3.88731 30.872105 7.544973
2005-06-15 13:20:02 51°26.578 3°8.34 15.3364 3.888786 30.885151 7.477554
2005-06-15 13:21:02 51°26.423 3°8.084 15.3401 3.888048 30.878628 7.241589
2005-06-15 13:22:02 51°26.239 3°7.861 15.333 3.886572 30.864995 7.207879
2005-06-15 13:23:02 51°26.056 3°7.639 15.3499 3.887099 30.872593 7.14046
2005-06-15 13:24:02 51°25.87 3°7.405 15.3543 3.887942 30.868295 7.17417
2005-06-15 13:25:02 51°25.684 3°7.17 15.3463 3.886467 30.852905 7.207879
2005-06-15 13:26:02 51°25.5 3°6.935 15.3652 3.883831 30.833728 7.612392
2005-06-15 13:27:02 51°25.317 3°6.701 15.3858 3.881091 30.794276 7.612392
2005-06-15 13:28:03 51°25.134 3°6.467 15.4293 3.879299 30.762072 7.882067
2005-06-15 13:29:03 51°24.949 3°6.235 15.4351 3.880036 30.735873 8.657383
2005-06-15 13:30:03 51°24.768 3°6.006 15.4372 3.879193 30.736024 9.095606
2005-06-15 13:31:02 51°24.59 3°5.778 15.4431 3.875293 30.697554 9.061896
2005-06-15 13:32:02 51°24.411 3°5.548 15.4451 3.876242 30.704169 8.960768
2005-06-15 13:33:02 51°24.235 3°5.313 15.4336 3.871709 30.662469 8.960768
2005-06-15 13:34:03 51°24.059 3°5.074 15.5001 3.871709 30.661887 8.960768
2005-06-15 13:35:02 51°23.885 3°4.838 15.459 3.875925 30.6589 9.163024
2005-06-15 13:36:02 51°23.71 3°4.594 15.4407 3.875504 30.686596 9.500118
2005-06-15 13:37:02 51°23.533 3°4.353 15.4505 3.87192 30.670149 9.634956
2005-06-15 13:38:02 51°23.355 3°4.114 15.4949 3.869706 30.635515 9.769794
2005-06-15 13:39:02 51°23.177 3°3.875 15.4677 3.869179 30.601262 10.174306
2005-06-15 13:40:03 51°22.997 3°3.633 15.4779 3.864015 30.574353 10.646238
2005-06-15 13:41:02 51°22.833 3°3.374 15.5098 3.865912 30.581779 11.08446
2005-06-15 13:42:02 51°22.679 3°3.097 15.489 3.865701 30.561382 11.017042
2005-06-15 13:43:02 51°22.529 3°2.811 15.4709 3.863382 30.558932 11.08446
2005-06-15 13:44:03 51°22.385 3°2.512 15.4603 3.862961 30.567971 10.713657
2005-06-15 13:45:02 51°22.247 3°2.213 15.4561 3.862118 30.568084 10.275435
2005-06-15 13:46:02 51°22.107 3°1.914 15.4581 3.864753 30.590713 10.005759
2005-06-15 13:47:03 51°21.963 3°1.616 15.4652 3.866966 30.610791 9.601247
2005-06-15 13:48:03 51°21.818 3°1.322 15.4665 3.867704 30.611483 9.39899
2005-06-15 13:49:02 51°21.676 3°1.028 15.4658 3.867071 30.607074 9.567537
2005-06-15 13:50:02 51°21.532 3°0.732 15.4628 3.866755 30.606611 9.938341
2005-06-15 13:51:03 51°21.388 3°0.432 15.4592 3.869917 30.63621 9.938341
2005-06-15 13:52:02 51°21.245 3°0.137 15.4455 3.871604 30.655721 9.702375
2005-06-15 13:53:02 51°21.1 2°59.839 15.4482 3.872025 30.666421 9.500118
2005-06-15 13:54:02 51°20.943 2°59.558 15.4668 3.869285 30.637033 9.4327
2005-06-15 13:55:02 51°20.787 2°59.278 15.4727 3.866123 30.599299 9.668665
2005-06-15 13:56:03 51°20.63 2°58.995 15.4691 3.864963 30.586186 10.208016
2005-06-15 13:57:02 51°20.474 2°58.715 15.4645 3.865385 30.589899 10.275435
2005-06-15 13:58:03 51°20.316 2°58.431 15.4744 3.866123 30.598138 9.97205
2005-06-15 13:59:03 51°20.16 2°58.148 15.4663 3.869074 30.621809 10.275435
2005-06-15 14:00:02 51°20.004 2°57.867 15.4522 3.86802 30.617753 10.5114
2005-06-15 14:01:02 51°19.848 2°57.583 15.4841 3.866966 30.616601 10.882204
2005-06-15 14:02:03 51°19.689 2°57.296 15.4738 3.879614 30.699525 11.050751
2005-06-15 14:03:03 51°19.532 2°57.01 15.4617 3.882776 30.741364 11.219298
2005-06-15 14:04:03 51°19.374 2°56.725 15.4914 3.880036 30.723626 11.050751
2005-06-15 14:05:03 51°19.216 2°56.439 15.5045 3.878981 30.696283 11.017042
2005-06-15 14:06:03 51°19.061 2°56.157 15.5255 3.880773 30.69577 10.646238
2005-06-15 14:07:02 51°18.905 2°55.877 15.5243 3.895529 30.807039 10.713657
2005-06-15 14:08:02 51°18.749 2°55.595 15.5055 3.912921 30.977215 10.983332
2005-06-15 14:09:02 51°18.586 2°55.325 15.604 3.920721 31.031868 11.08446
2005-06-15 14:10:03 51°18.416 2°55.058 15.5983 3.931894 31.072694 11.219298
2005-06-15 14:11:02 51°18.251 2°54.799 15.5826 3.931683 31.074949 11.050751
2005-06-15 14:12:03 51°18.083 2°54.535 15.5575 3.93221 31.091931 10.983332
2005-06-15 14:13:03 51°17.912 2°54.281 15.5473 3.933686 31.124352 10.983332
2005-06-15 14:14:03 51°17.731 2°54.041 15.5295 3.938114 31.173987 10.578819
2005-06-15 14:15:02 51°17.551 2°53.816 15.5259 3.946968 31.262128 9.97205
2005-06-15 14:16:02 51°17.367 2°53.595 15.5353 3.95382 31.320212 9.533828
2005-06-15 14:17:02 51°17.178 2°53.378 15.5103 3.962569 31.395645 9.129315
2005-06-15 14:18:02 51°16.967 2°53.259 15.4922 3.969421 31.478792 8.758512
2005-06-15 14:19:03 51°16.736 2°53.285 15.4945 3.977644 31.558035 8.320289
2005-06-15 14:20:03 51°16.51 2°53.324 15.5157 3.984074 31.612491 8.118033
2005-06-15 14:21:03 51°16.29 2°53.366 15.5245 3.963834 31.418118 8.185452
2005-06-15 14:22:02 51°16.078 2°53.45 15.5251 3.935795 31.165345 8.893349
2005-06-15 14:23:02 51°15.871 2°53.568 15.5044 3.927784 31.095297 8.994477
2005-06-15 14:24:03 51°15.662 2°53.697 15.4869 3.923989 31.07774 8.994477
2005-06-15 14:25:02 51°15.461 2°53.827 15.6175 3.932106 31.15642 8.724802
2005-06-15 14:26:02 51°15.267 2°53.984 15.6283 3.914817 30.906695 8.85964
2005-06-15 14:27:02 51°15.077 2°54.15 15.6104 3.909231 30.854098 8.82593
2005-06-15 14:28:02 51°14.886 2°54.321 15.5833 3.910285 30.876188 8.82593
2005-06-15 14:29:02 51°14.706 2°54.518 15.5505 3.906491 30.860908 9.129315
2005-06-15 14:30:02 51°14.546 2°54.751 15.5585 3.903224 30.861347 9.4327
2005-06-15 14:31:02 51°14.4 2°54.997 15.664 3.878348 30.621637 10.039469
2005-06-15 14:32:03 51°14.302 2°55.19 15.704 3.813106 29.986758 11.185589
2005-06-15 14:33:02 51°14.233 2°55.305 15.7874 3.747237 29.366093 12.533965
2005-06-15 14:34:03 51°14.151 2°55.416 15.8239 3.712038 29.016135 13.747503
2005-06-15 14:35:03 51°14.059 2°55.517 15.89 3.671468 28.627631 15.432973
2005-06-15 14:36:02 51°13.936 2°55.596 15.9763 3.62974 28.218593 16.612802
2005-06-15 14:37:02 51°13.797 2°55.66 16.0508 3.563466 27.59707 18.298272
2005-06-15 14:38:02 51°13.724 2°55.767 16.3446 3.392806 26.075055 20.556802
2005-06-15 14:39:02 51°13.683 2°55.865 16.3629 3.001411 22.608598 18.97246
2005-06-15 14:40:02 51°13.64 2°55.959 16.2724 3.117106 23.582751 18.500529
2005-06-15 14:41:03 51°13.61 2°56.044 16.3079 3.248516 24.744448 18.803913
2005-06-15 14:42:03 51°13.6 2°56.097 16.2738 3.216609 24.452577 18.062306
2005-06-15 14:43:03 51°13.597 2°56.107 16.2662 3.262417 24.854125 17.152153